createdAt,value
2019-01-30T20:28:15.437Z,80.10
2019-01-30T20:30:44.268Z,81.60
2019-01-30T20:33:13.135Z,83.10
2019-01-30T20:35:41.970Z,83.90
2019-01-30T20:38:10.850Z,84.30
2019-01-30T20:40:39.701Z,84.30
2019-01-30T20:43:08.538Z,84.20
2019-01-30T20:45:37.817Z,84.60
2019-01-30T20:48:07.606Z,84.50
2019-01-30T20:50:36.931Z,84.50
2019-01-30T20:53:06.025Z,84.40
2019-01-30T20:55:34.948Z,84.30
2019-01-30T20:58:04.650Z,84.30
2019-01-30T21:00:38.109Z,84.20
2019-01-30T21:03:07.459Z,84.40
2019-01-30T21:05:36.266Z,84.30
2019-01-30T21:08:05.727Z,84.30
2019-01-30T21:10:37.244Z,84.30
2019-01-30T21:13:06.596Z,84.50
2019-01-30T21:15:35.423Z,84.70
2019-01-30T21:18:04.988Z,84.70
2019-01-30T21:20:36.428Z,84.80
2019-01-30T21:23:05.593Z,84.80
2019-01-30T21:25:34.428Z,84.80
2019-01-30T21:28:03.478Z,85.00
2019-01-30T21:30:34.516Z,85.00
2019-01-30T21:33:03.380Z,85.10
2019-01-30T21:35:32.206Z,85.20
2019-01-30T21:38:01.067Z,85.30
2019-01-30T21:40:29.890Z,85.40
2019-01-30T21:42:58.753Z,85.60
2019-01-30T21:45:28.091Z,85.60
2019-01-30T21:47:56.956Z,86.50
2019-01-30T21:50:25.781Z,85.80
2019-01-30T21:52:54.647Z,85.90
2019-01-30T21:55:25.130Z,85.80
2019-01-30T21:57:54.000Z,85.80
2019-01-30T22:00:30.103Z,85.80
2019-01-30T22:02:59.058Z,85.80
2019-01-30T22:05:27.899Z,85.70
2019-01-30T22:08:00.866Z,85.70
2019-01-30T22:10:29.473Z,86.60
2019-01-30T22:12:58.336Z,85.90
2019-01-30T22:15:27.675Z,85.90
2019-01-30T22:17:56.618Z,85.90
2019-01-30T22:20:28.519Z,86.00
2019-01-30T22:22:57.359Z,86.00
2019-01-30T22:25:27.172Z,86.20
2019-01-30T22:27:55.991Z,86.20
2019-01-30T22:30:32.956Z,86.30
2019-01-30T22:33:01.770Z,86.40
2019-01-30T22:35:30.632Z,86.40
2019-01-30T22:37:59.460Z,86.60
2019-01-30T22:40:28.333Z,86.60
2019-01-30T22:42:57.164Z,86.60
2019-01-30T22:45:26.034Z,86.60
2019-01-30T22:47:54.859Z,86.80
2019-01-30T22:50:23.723Z,86.80
2019-01-30T22:52:52.543Z,86.60
2019-01-30T22:55:23.311Z,86.50
2019-01-30T22:57:52.134Z,86.20
2019-01-30T23:01:01.894Z,86.50
2019-01-30T23:03:51.346Z,86.50
2019-01-30T23:06:29.028Z,86.30
2019-01-30T23:09:34.223Z,86.20
2019-01-30T23:12:24.108Z,86.30
2019-01-30T23:15:10.732Z,86.20
2019-01-30T23:17:57.407Z,86.30
2019-01-30T23:20:26.274Z,86.20
2019-01-30T23:23:01.106Z,86.30
2019-01-30T23:25:48.270Z,86.40
2019-01-30T23:28:39.883Z,86.50
2019-01-30T23:31:28.659Z,86.40
2019-01-30T23:34:00.435Z,86.40
2019-01-30T23:36:44.373Z,86.40
2019-01-30T23:39:34.723Z,86.50
2019-01-30T23:42:18.538Z,86.30
2019-01-30T23:44:53.050Z,86.40
2019-01-30T23:47:33.475Z,86.50
2019-01-30T23:50:23.446Z,86.40
2019-01-30T23:53:18.910Z,86.30
2019-01-30T23:55:59.085Z,86.30
2019-01-30T23:58:33.703Z,85.90
